Time;durP1;ratioP1;P1;durP2;ratioP2;P2;SDS_P1;SDS_P2;PMS_P1;PMS_P2;Temp;Humidity;BMP_temperature;BMP_pressure;BME280_temperature;BME280_humidity;BME280_pressure;Samples;Min_cycle;Max_cycle;Signal;HPM_P1;HPM_P2
2022/05/25 00:02:36;;;;;;;;;15.50;15.00;;;;;21.32;62.88;100797.81;146609;693;46030;-77
2022/05/25 00:05:30;;;;;;;;;12.50;11.75;;;;;21.33;62.66;100804.84;146606;597;46012;-76
2022/05/25 00:08:23;;;;;;;;;13.00;12.00;;;;;21.32;62.97;100807.47;146609;592;46012;-80
2022/05/25 00:11:16;;;;;;;;;16.75;14.25;;;;;21.32;61.94;100810.13;146605;673;47016;-79
2022/05/25 00:14:08;;;;;;;;;13.75;12.75;;;;;21.32;62.49;100800.44;146606;581;46020;-75
2022/05/25 00:17:00;;;;;;;;;12.50;12.50;;;;;21.33;62.02;100803.97;146606;580;46016;-74
2022/05/25 00:20:02;;;;;;;;;16.25;14.25;;;;;21.34;61.90;100797.81;146607;626;46010;-75
2022/05/25 00:22:56;;;;;;;;;12.75;12.25;;;;;21.36;62.28;100807.53;146606;602;46014;-74
2022/05/25 00:25:48;;;;;;;;;15.75;12.75;;;;;21.35;62.21;100797.88;146604;633;46020;-74
2022/05/25 00:28:40;;;;;;;;;15.75;14.25;;;;;21.30;63.52;100803.94;146605;629;46016;-74
2022/05/25 00:31:33;;;;;;;;;13.75;11.25;;;;;21.22;62.72;100809.16;146605;560;46020;-82
2022/05/25 00:34:25;;;;;;;;;11.75;11.50;;;;;21.17;63.37;100803.81;146605;607;46016;-81
2022/05/25 00:37:17;;;;;;;;;11.50;11.50;;;;;21.13;63.51;100795.88;146609;603;46010;-82
2022/05/25 00:40:12;;;;;;;;;13.75;12.50;;;;;21.08;62.83;100793.19;146607;579;46012;-82
2022/05/25 00:43:05;;;;;;;;;15.25;12.75;;;;;20.11;62.92;100622.72;146604;587;46020;-84
2022/05/25 00:46:04;;;;;;;;;12.75;12.00;;;;;21.12;62.34;100789.75;146606;567;46012;-83
2022/05/25 00:49:04;;;;;;;;;13.00;12.00;;;;;21.10;62.70;100788.81;146606;663;46020;-78
2022/05/25 00:52:14;;;;;;;;;13.50;13.00;;;;;21.10;62.09;100791.47;146605;628;46016;-80
2022/05/25 00:55:10;;;;;;;;;14.25;13.25;;;;;21.08;62.59;100782.66;146605;588;46020;-74
2022/05/25 00:58:04;;;;;;;;;15.00;14.25;;;;;21.13;61.55;100787.97;146603;717;46016;-75
2022/05/25 01:00:56;;;;;;;;;13.25;12.25;;;;;21.18;61.82;100795.06;146607;587;46033;-76
2022/05/25 01:03:48;;;;;;;;;14.25;13.50;;;;;21.26;62.11;100795.12;146607;633;46012;-70
2022/05/25 01:07:11;;;;;;;;;12.75;12.00;;;;;21.32;61.22;100803.09;146610;666;46010;-83
2022/05/25 01:11:00;;;;;;;;;13.75;12.00;;;;;21.31;60.18;100808.31;146604;599;46016;-85
2022/05/25 01:14:33;;;;;;;;;12.25;11.25;;;;;21.22;60.78;100806.53;146606;569;47010;-75
2022/05/25 01:18:12;;;;;;;;;14.75;12.75;;;;;21.22;61.07;100823.22;146604;593;46016;-78
2022/05/25 01:21:23;;;;;;;;;12.25;12.25;;;;;21.12;62.34;100807.28;146607;616;47011;-76
2022/05/25 01:25:06;;;;;;;;;13.25;12.50;;;;;20.00;61.56;100646.28;146607;628;46016;-77
2022/05/25 01:28:04;;;;;;;;;12.50;12.00;;;;;20.89;62.64;100810.59;146626;607;45020;-77
2022/05/25 01:31:00;;;;;;;;;11.50;10.25;;;;;20.85;62.69;100824.59;146628;585;45017;-78
2022/05/25 01:34:01;;;;;;;;;13.50;13.50;;;;;20.83;62.98;100810.50;146631;717;45010;-74
2022/05/25 01:37:38;;;;;;;;;14.00;13.25;;;;;19.70;62.62;100625.75;146626;614;45016;-86
2022/05/25 01:41:08;;;;;;;;;14.00;12.75;;;;;20.76;62.82;100816.59;146630;618;44916;-83
2022/05/25 01:44:14;;;;;;;;;15.25;13.00;;;;;20.68;63.24;100813.84;146627;616;45013;-83
2022/05/25 01:47:10;;;;;;;;;17.00;15.75;;;;;20.63;63.32;100818.22;146629;573;45020;-79
2022/05/25 01:50:33;;;;;;;;;13.50;13.25;;;;;19.55;62.87;100639.53;146630;573;45012;-77
2022/05/25 01:53:31;;;;;;;;;12.00;12.00;;;;;20.59;63.34;100824.31;146628;630;45020;-78
2022/05/25 01:56:25;;;;;;;;;17.00;15.25;;;;;20.60;63.28;100823.44;146626;577;45916;-79
2022/05/25 01:59:20;;;;;;;;;12.75;12.00;;;;;20.63;64.12;100817.34;146627;628;45021;-78
2022/05/25 02:05:25;;;;;;;;;12.00;11.75;;;;;20.63;64.23;100827.88;146627;601;45020;-77
2022/05/25 02:08:33;;;;;;;;;13.00;13.00;;;;;20.59;62.93;100826.03;146621;611;46016;-77
2022/05/25 02:11:44;;;;;;;;;14.75;14.75;;;;;20.53;63.30;100826.87;146626;577;45020;-77
2022/05/25 02:15:01;;;;;;;;;15.00;14.00;;;;;20.50;62.97;100829.44;146628;631;46012;-82
2022/05/25 02:18:15;;;;;;;;;11.75;11.75;;;;;20.44;62.90;100824.09;146630;573;45020;-77
2022/05/25 02:21:49;;;;;;;;;15.75;13.25;;;;;20.45;63.28;100833.75;146631;566;45010;-76
2022/05/25 02:24:57;;;;;;;;;12.50;11.50;;;;;20.42;63.38;100836.34;146628;571;45010;-76
2022/05/25 02:28:07;;;;;;;;;15.00;13.25;;;;;20.39;63.18;100836.31;146605;666;47012;-75
2022/05/25 02:31:03;;;;;;;;;16.50;14.75;;;;;20.38;64.48;100839.81;146604;640;46020;-79
2022/05/25 02:33:59;;;;;;;;;15.25;14.00;;;;;20.34;64.10;100840.63;146605;698;46915;-79
2022/05/25 02:36:53;;;;;;;;;15.00;15.00;;;;;20.31;64.27;100838.81;146606;613;46020;-80
2022/05/25 02:39:47;;;;;;;;;22.75;20.75;;;;;20.32;64.37;100837.97;146603;642;47014;-81
2022/05/25 02:42:44;;;;;;;;;18.75;17.00;;;;;20.30;64.16;100830.03;146607;578;46010;-80
2022/05/25 02:45:37;;;;;;;;;17.00;15.75;;;;;20.29;64.19;100832.69;146607;600;46012;-81
2022/05/25 02:48:29;;;;;;;;;16.50;15.75;;;;;20.29;63.86;100833.56;146607;572;46020;-80
2022/05/25 02:51:21;;;;;;;;;17.00;14.75;;;;;20.32;64.32;100831.84;146605;590;46016;-85
2022/05/25 02:54:14;;;;;;;;;14.50;14.50;;;;;20.35;63.87;100835.38;146607;566;46010;-85
2022/05/25 02:57:06;;;;;;;;;16.75;15.25;;;;;20.38;64.63;100839.81;146604;633;46016;-84
2022/05/25 02:59:58;;;;;;;;;18.00;16.00;;;;;20.36;64.41;100842.41;146605;605;46021;-87
2022/05/25 03:02:50;;;;;;;;;15.25;14.50;;;;;20.34;63.94;100846.78;146604;563;46915;-78
2022/05/25 03:05:44;;;;;;;;;20.25;17.50;;;;;20.28;64.97;100846.72;146607;596;46010;-77
2022/05/25 03:08:37;;;;;;;;;18.25;17.25;;;;;20.19;65.05;100847.47;146604;625;46915;-78
2022/05/25 03:11:29;;;;;;;;;16.75;15.50;;;;;20.10;64.79;100836.81;146609;623;46020;-79
2022/05/25 03:14:21;;;;;;;;;13.00;13.00;;;;;20.01;66.08;100834.03;146608;606;45017;-77
2022/05/25 03:17:15;;;;;;;;;17.25;15.00;;;;;19.92;66.85;100845.31;146611;601;45020;-73
2022/05/25 03:20:08;;;;;;;;;12.50;11.75;;;;;19.87;67.02;100843.47;146604;615;46034;-73
2022/05/25 03:23:01;;;;;;;;;15.75;13.00;;;;;19.79;67.06;100841.63;146609;595;46010;-75
2022/05/25 03:25:53;;;;;;;;;15.25;13.25;;;;;19.74;66.83;100848.53;146606;624;46012;-82
2022/05/25 03:28:45;;;;;;;;;16.25;15.25;;;;;19.73;66.27;100848.53;146606;619;46010;-86
2022/05/25 03:31:37;;;;;;;;;16.25;14.50;;;;;19.77;66.15;100851.22;146604;600;46016;-81
2022/05/25 03:34:31;;;;;;;;;12.75;12.50;;;;;19.82;65.70;100846.91;146607;601;46020;-75
2022/05/25 03:37:23;;;;;;;;;14.75;14.25;;;;;19.94;65.36;100855.88;146606;628;46016;-79
2022/05/25 03:40:18;;;;;;;;;16.75;14.25;;;;;20.05;64.74;100843.75;146607;601;46020;-78
2022/05/25 03:43:12;;;;;;;;;14.00;12.50;;;;;20.10;65.46;100844.69;146607;570;46017;-80
2022/05/25 03:46:04;;;;;;;;;16.75;13.75;;;;;20.11;65.79;100840.31;146607;599;46010;-73
2022/05/25 03:48:57;;;;;;;;;14.25;14.25;;;;;20.11;66.31;100838.56;146606;684;46016;-79
2022/05/25 03:51:50;;;;;;;;;16.00;14.75;;;;;20.13;66.54;100843.87;146607;576;46020;-77
2022/05/25 03:54:42;;;;;;;;;14.50;13.00;;;;;20.16;65.44;100847.44;146605;683;46915;-77
2022/05/25 03:57:34;;;;;;;;;17.25;15.50;;;;;20.23;65.70;100845.75;146607;605;46011;-76
2022/05/25 04:00:26;;;;;;;;;16.50;14.25;;;;;20.28;64.88;100846.72;146602;570;47012;-73
2022/05/25 04:03:19;;;;;;;;;14.00;14.00;;;;;20.34;65.85;100846.78;146611;569;46010;-74
2022/05/25 04:06:12;;;;;;;;;13.00;13.00;;;;;20.35;64.83;100845.03;146605;611;46017;-73
2022/05/25 04:09:05;;;;;;;;;17.25;14.75;;;;;20.43;65.48;100844.25;146607;588;46010;-74
2022/05/25 04:11:58;;;;;;;;;18.25;17.00;;;;;20.52;65.53;100847.03;146606;639;46012;-75
2022/05/25 04:14:50;;;;;;;;;16.25;16.25;;;;;20.62;65.44;100841.88;146608;597;46010;-74
2022/05/25 04:17:42;;;;;;;;;14.25;13.25;;;;;20.71;65.52;100845.50;146606;600;46016;-74
2022/05/25 04:20:35;;;;;;;;;15.25;13.75;;;;;20.83;64.75;100850.03;146607;665;46020;-74
2022/05/25 04:23:28;;;;;;;;;12.50;12.50;;;;;20.95;64.31;100858.09;146605;576;46892;-75
2022/05/25 04:26:20;;;;;;;;;15.50;14.75;;;;;21.14;64.27;100864.44;146603;611;47010;-74
2022/05/25 04:29:12;;;;;;;;;16.25;14.25;;;;;21.33;63.55;100868.16;146605;564;46012;-75
2022/05/25 04:32:06;;;;;;;;;14.50;13.50;;;;;20.55;63.81;100696.06;146609;577;46010;-78
2022/05/25 04:34:58;;;;;;;;;16.25;12.50;;;;;21.68;63.33;100871.16;146603;615;46017;-78
2022/05/25 04:37:54;;;;;;;;;19.00;16.50;;;;;21.86;63.01;100875.66;146609;605;46010;-79
2022/05/25 04:40:48;;;;;;;;;14.50;14.25;;;;;22.04;62.52;100877.56;146604;571;46017;-78
2022/05/25 04:43:41;;;;;;;;;19.25;18.00;;;;;22.20;61.64;100878.56;146606;611;46021;-78
2022/05/25 04:46:33;;;;;;;;;15.75;14.75;;;;;22.37;61.34;100879.56;146605;572;46016;-79
2022/05/25 04:49:26;;;;;;;;;15.00;15.00;;;;;22.60;61.85;100884.94;146606;590;46020;-78
2022/05/25 04:52:18;;;;;;;;;16.50;15.50;;;;;22.83;60.12;100884.16;146606;585;46012;-79
2022/05/25 04:57:19;;;;;;;;;18.00;16.50;;;;;23.05;59.90;100880.75;146607;584;46012;-79
2022/05/25 04:58:32;;;;;;;;;16.50;15.75;;;;;23.32;58.94;100879.03;146604;589;46017;-73
2022/05/25 05:01:24;;;;;;;;;15.75;15.25;;;;;23.52;57.68;100879.94;146608;584;46020;-73
2022/05/25 05:04:16;;;;;;;;;17.75;16.50;;;;;23.70;57.67;100879.06;146609;597;46012;-74
2022/05/25 05:07:09;;;;;;;;;18.00;14.00;;;;;23.87;57.12;100881.72;146605;594;46020;-73
2022/05/25 05:10:02;;;;;;;;;14.00;14.00;;;;;24.05;56.55;100880.84;146607;577;46012;-77
2022/05/25 05:12:54;;;;;;;;;17.25;15.75;;;;;24.20;56.50;100879.91;146606;577;47010;-76
2022/05/25 05:15:49;;;;;;;;;14.75;14.00;;;;;24.34;55.50;100885.19;146607;590;46016;-75
2022/05/25 05:18:44;;;;;;;;;15.25;14.25;;;;;24.48;55.33;100886.03;146607;569;46020;-76
2022/05/25 05:21:36;;;;;;;;;13.75;12.25;;;;;24.65;55.16;100888.66;146608;569;45016;-79
2022/05/25 05:24:30;;;;;;;;;17.25;17.00;;;;;24.79;54.45;100892.09;146606;606;46020;-80
2022/05/25 05:27:22;;;;;;;;;16.50;16.00;;;;;24.88;54.28;100886.75;146628;604;45017;-79
2022/05/25 05:30:18;;;;;;;;;19.75;17.25;;;;;24.99;54.06;100899.09;146631;602;45010;-79
2022/05/25 05:33:10;;;;;;;;;17.50;16.00;;;;;25.10;53.99;100902.56;146626;587;45016;-80
2022/05/25 05:36:36;;;;;;;;;20.25;18.00;;;;;25.23;53.71;100901.63;146632;565;45010;-81
2022/05/25 05:39:31;;;;;;;;;18.50;18.00;;;;;25.38;53.19;100902.44;146628;586;45012;-78
2022/05/25 05:42:26;;;;;;;;;22.25;21.50;;;;;25.46;52.45;100905.91;146629;589;45021;-78
2022/05/25 05:45:25;;;;;;;;;30.00;29.00;;;;;25.55;52.81;100909.38;146630;629;45012;-79
2022/05/25 05:48:24;;;;;;;;;45.25;37.25;;;;;25.66;52.29;100906.62;146623;565;46011;-77
2022/05/25 05:51:16;;;;;;;;;43.25;34.50;;;;;25.72;51.94;100911.91;146627;566;45016;-77
2022/05/25 05:54:09;;;;;;;;;45.00;35.75;;;;;25.75;53.04;100913.66;146628;628;46010;-80
2022/05/25 05:57:02;;;;;;;;;32.75;28.75;;;;;25.78;53.50;100916.28;146630;621;45016;-78
2022/05/25 05:59:54;;;;;;;;;23.00;19.50;;;;;25.75;54.23;100919.84;146629;563;45915;-82
2022/05/25 06:02:48;;;;;;;;;24.25;24.25;;;;;25.73;54.43;100924.31;146623;602;45016;-75
2022/05/25 06:05:40;;;;;;;;;24.50;20.50;;;;;25.77;54.08;100920.72;146630;586;45020;-78
2022/05/25 06:08:32;;;;;;;;;17.25;17.00;;;;;25.80;54.79;100918.03;146629;569;45020;-77
2022/05/25 06:11:25;;;;;;;;;21.25;19.75;;;;;25.85;54.91;100925.13;146628;728;46020;-69
2022/05/25 06:14:17;;;;;;;;;17.75;17.50;;;;;25.76;55.08;100926.94;146629;583;45016;-75
2022/05/25 06:20:19;;;;;;;;;19.00;16.50;;;;;25.71;56.16;100923.44;146628;598;45012;-76
2022/05/25 06:23:11;;;;;;;;;16.50;15.50;;;;;25.75;56.08;100926.94;146628;574;45020;-75
2022/05/25 06:26:04;;;;;;;;;17.50;15.50;;;;;25.67;56.82;100931.41;146614;580;46015;-76
2022/05/25 06:28:56;;;;;;;;;16.00;16.00;;;;;25.58;57.19;100937.69;146608;720;46010;-75
2022/05/25 06:31:49;;;;;;;;;19.00;16.50;;;;;24.79;56.59;100807.25;146604;593;46016;-74
2022/05/25 06:34:47;;;;;;;;;17.25;16.75;;;;;25.64;56.06;100940.31;146606;569;46030;-75
2022/05/25 06:37:39;;;;;;;;;16.00;16.00;;;;;25.73;55.61;100948.22;146606;628;46024;-74
2022/05/25 06:40:32;;;;;;;;;14.25;14.25;;;;;25.80;56.87;100943.72;146608;655;46020;-72
2022/05/25 06:43:24;;;;;;;;;16.75;16.25;;;;;25.98;56.60;100946.25;146605;624;46016;-74
2022/05/25 06:46:21;;;;;;;;;18.50;18.25;;;;;26.18;55.20;100950.50;146608;625;46020;-76
2022/05/25 06:49:13;;;;;;;;;22.50;18.75;;;;;26.26;55.50;100946.88;146605;571;46017;-76
2022/05/25 06:52:05;;;;;;;;;15.50;14.50;;;;;26.39;55.18;100945.00;146608;563;47010;-77
2022/05/25 06:54:58;;;;;;;;;16.25;15.25;;;;;26.49;54.79;100948.47;146604;650;47012;-77
2022/05/25 06:57:50;;;;;;;;;13.00;13.00;;;;;26.46;55.59;100949.34;146608;572;46010;-82
2022/05/25 07:00:42;;;;;;;;;18.75;14.00;;;;;26.42;55.52;100938.75;146604;614;46037;-79
2022/05/25 07:03:35;;;;;;;;;15.25;15.25;;;;;26.46;55.21;100948.47;146603;657;46916;-80
2022/05/25 07:06:28;;;;;;;;;18.75;17.25;;;;;26.52;54.81;100951.09;146603;643;46024;-80
2022/05/25 07:09:20;;;;;;;;;19.75;16.50;;;;;26.67;54.33;100948.25;146609;584;46020;-80
2022/05/25 07:12:13;;;;;;;;;16.00;15.00;;;;;26.84;53.99;100950.69;146604;581;46916;-81
2022/05/25 07:15:05;;;;;;;;;18.00;16.25;;;;;27.06;52.88;100951.31;146606;563;46012;-82
2022/05/25 07:17:57;;;;;;;;;16.00;14.75;;;;;27.31;54.23;100956.34;146604;609;46017;-80
2022/05/25 07:20:50;;;;;;;;;17.00;14.00;;;;;27.54;53.59;100954.22;146608;586;46915;-79
2022/05/25 07:23:43;;;;;;;;;17.50;16.00;;;;;27.68;54.18;100953.13;146605;688;46014;-77
2022/05/25 07:26:36;;;;;;;;;14.50;13.50;;;;;27.78;53.62;100952.09;146606;573;46021;-78
2022/05/25 07:29:28;;;;;;;;;15.50;14.25;;;;;27.80;52.96;100964.50;146605;569;46014;-80
2022/05/25 07:32:23;;;;;;;;;14.75;13.25;;;;;27.83;53.11;100966.25;146608;656;46021;-80
2022/05/25 07:35:17;;;;;;;;;15.25;15.00;;;;;27.95;52.39;100970.50;146604;574;46016;-80
2022/05/25 07:38:10;;;;;;;;;15.75;14.50;;;;;28.07;52.07;100963.19;146607;582;46020;-78
2022/05/25 07:41:03;;;;;;;;;14.50;14.00;;;;;28.24;52.61;100962.87;146605;618;46016;-80
2022/05/25 07:43:58;;;;;;;;;17.75;15.50;;;;;28.42;51.06;100966.16;146605;581;46020;-78
2022/05/25 07:46:50;;;;;;;;;17.50;16.00;;;;;28.48;49.95;100976.69;146604;674;46016;-77
2022/05/25 07:49:42;;;;;;;;;16.75;15.00;;;;;28.45;51.14;100969.63;146607;606;46020;-76
2022/05/25 07:52:38;;;;;;;;;14.75;14.25;;;;;28.50;50.12;100975.75;146607;569;46012;-78
2022/05/25 07:55:31;;;;;;;;;15.50;14.25;;;;;28.57;49.30;100971.19;146607;597;46020;-76
2022/05/25 07:58:23;;;;;;;;;17.00;14.50;;;;;28.49;49.68;100976.66;146604;619;46016;-75
2022/05/25 08:05:43;;;;;;;;;13.25;12.00;;;;;28.43;50.95;100979.44;146606;620;46020;-78
2022/05/25 08:07:52;;;;;;;;;17.50;15.00;;;;;28.49;51.46;100975.78;146608;569;46020;-75
2022/05/25 08:10:46;;;;;;;;;14.75;13.75;;;;;28.57;50.39;100986.28;146608;566;45017;-78
2022/05/25 08:13:41;;;;;;;;;13.00;12.50;;;;;28.55;50.29;100989.87;146608;569;46010;-78
2022/05/25 08:16:32;;;;;;;;;16.50;15.00;;;;;28.54;50.55;100985.47;146603;578;46017;-78
2022/05/25 08:19:25;;;;;;;;;17.50;14.25;;;;;28.55;49.80;100995.22;146603;600;46021;-79
2022/05/25 08:22:17;;;;;;;;;17.00;15.00;;;;;28.48;50.57;100993.59;146605;616;46016;-77
2022/05/25 08:25:11;;;;;;;;;15.25;15.25;;;;;28.45;49.94;100985.63;146605;629;46021;-79
2022/05/25 08:28:03;;;;;;;;;13.00;13.00;;;;;28.48;50.52;100993.59;146607;616;46012;-81
2022/05/25 08:30:56;;;;;;;;;15.75;15.50;;;;;28.53;50.25;100993.47;146606;593;46021;-78
2022/05/25 08:33:47;;;;;;;;;14.00;13.00;;;;;28.56;49.19;100993.44;146606;569;45041;-80
2022/05/25 08:36:40;;;;;;;;;14.75;13.50;;;;;28.57;49.20;100991.62;146608;582;46010;-77
2022/05/25 08:39:32;;;;;;;;;14.25;13.75;;;;;28.57;48.42;100989.87;146606;570;46015;-78
2022/05/25 08:42:27;;;;;;;;;14.00;13.50;;;;;28.63;49.24;100999.53;146608;654;46010;-78
2022/05/25 08:45:19;;;;;;;;;13.50;12.00;;;;;28.73;49.96;100991.31;146604;632;46916;-79
2022/05/25 08:48:15;;;;;;;;;11.25;11.25;;;;;28.83;45.38;100997.34;146605;652;47012;-73
2022/05/25 08:51:12;;;;;;;;;11.25;11.00;;;;;28.95;46.36;100997.13;146608;582;46012;-76
2022/05/25 08:54:05;;;;;;;;;15.75;13.25;;;;;28.95;44.41;100991.78;146608;569;46020;-76
2022/05/25 08:57:11;;;;;;;;;16.00;14.75;;;;;28.99;45.45;100985.44;146609;607;46012;-76
2022/05/25 09:00:17;;;;;;;;;16.00;14.75;;;;;29.03;45.47;101001.44;146604;614;46020;-73
2022/05/25 09:03:42;;;;;;;;;16.75;15.75;;;;;29.06;46.02;100998.69;146606;608;46012;-76
2022/05/25 09:06:56;;;;;;;;;13.25;13.25;;;;;29.06;44.06;100994.25;146609;591;46020;-74
2022/05/25 09:09:51;;;;;;;;;16.00;16.00;;;;;29.03;44.15;100996.97;146608;661;46032;-74
2022/05/25 09:12:53;;;;;;;;;16.50;14.75;;;;;29.04;45.17;100995.22;146608;616;46032;-74
2022/05/25 09:19:38;;;;;;;;;14.75;14.75;;;;;28.17;44.81;100870.56;146603;614;46020;-75
2022/05/25 09:22:31;;;;;;;;;13.00;13.00;;;;;28.94;43.21;101006.03;146607;588;46012;-75
2022/05/25 09:25:24;;;;;;;;;14.50;14.50;;;;;29.02;44.11;100999.69;146608;611;46010;-75
2022/05/25 09:28:25;;;;;;;;;16.00;15.75;;;;;29.10;44.09;101000.41;146606;593;46915;-76
2022/05/25 09:31:31;;;;;;;;;13.00;13.00;;;;;29.23;42.38;101001.91;146608;648;46021;-75
2022/05/25 09:34:46;;;;;;;;;14.25;13.50;;;;;28.80;45.79;100885.34;146605;591;46016;-76
2022/05/25 09:38:18;;;;;;;;;19.25;18.00;;;;;29.37;46.97;100954.38;146608;573;47011;-76
2022/05/25 09:41:13;;;;;;;;;16.25;15.50;;;;;29.86;45.64;100998.69;146604;611;47913;-76
2022/05/25 09:44:07;;;;;;;;;18.50;17.75;;;;;30.05;45.79;100999.13;146604;597;47012;-76
2022/05/25 09:47:20;;;;;;;;;15.75;14.75;;;;;30.20;45.82;101002.38;146606;571;46014;-78
2022/05/25 09:50:29;;;;;;;;;15.25;13.00;;;;;30.13;45.33;100993.59;146603;661;46020;-79
2022/05/25 09:53:22;;;;;;;;;15.50;14.25;;;;;30.13;45.30;100998.94;146604;598;47014;-79
2022/05/25 09:56:43;;;;;;;;;15.25;14.25;;;;;30.17;44.30;100995.28;146609;680;45024;-81
2022/05/25 09:59:44;;;;;;;;;14.50;12.25;;;;;30.33;46.30;100998.44;146605;611;46016;-80
2022/05/25 10:02:55;;;;;;;;;15.75;15.25;;;;;30.54;45.76;101002.38;146608;605;46020;-80
2022/05/25 10:05:59;;;;;;;;;14.00;14.00;;;;;29.81;45.65;100858.94;146606;586;46016;-81
2022/05/25 10:09:14;;;;;;;;;17.25;14.75;;;;;30.54;45.26;100989.84;146606;615;46021;-80
2022/05/25 10:12:33;;;;;;;;;15.25;14.50;;;;;30.58;45.81;100996.00;146606;583;46012;-80
2022/05/25 10:15:38;;;;;;;;;15.50;14.50;;;;;30.62;45.40;100997.66;146605;579;46021;-80
2022/05/25 10:18:44;;;;;;;;;14.25;13.25;;;;;30.72;45.28;100991.16;146604;643;46915;-80
2022/05/25 10:21:45;;;;;;;;;15.75;15.00;;;;;30.82;43.75;100986.44;146604;606;46020;-82
2022/05/25 10:24:46;;;;;;;;;16.00;14.00;;;;;30.80;44.46;100997.19;146607;625;46012;-80
2022/05/25 10:27:46;;;;;;;;;17.75;15.50;;;;;30.78;46.07;100985.66;146605;677;46027;-80
2022/05/25 10:37:39;;;;;;;;;15.75;15.00;;;;;30.57;46.72;100994.25;146605;622;46034;-82
2022/05/25 10:40:35;;;;;;;;;15.00;13.50;;;;;30.55;47.14;100996.94;146609;656;46010;-81
2022/05/25 10:43:33;;;;;;;;;14.75;14.50;;;;;30.61;47.19;100995.91;146606;652;46014;-87
2022/05/25 10:46:26;;;;;;;;;14.50;14.25;;;;;30.71;46.45;100988.50;146606;581;46021;-86
2022/05/25 10:49:53;;;;;;;;;15.00;14.50;;;;;30.78;46.64;100991.00;146606;611;46016;-87
2022/05/25 10:52:50;;;;;;;;;14.50;13.50;;;;;30.82;46.52;100992.66;146597;620;46914;-83
2022/05/25 10:56:04;;;;;;;;;15.00;14.25;;;;;30.85;46.67;100997.06;146606;627;47012;-80
2022/05/25 10:59:27;;;;;;;;;15.25;12.75;;;;;30.79;45.01;100987.41;146606;604;46020;-80
2022/05/25 11:02:59;;;;;;;;;14.75;14.00;;;;;30.23;46.67;100908.69;146606;569;46016;-76
2022/05/25 11:06:04;;;;;;;;;12.75;12.50;;;;;30.72;46.76;100985.81;146608;576;46010;-83
2022/05/25 11:09:34;;;;;;;;;15.75;14.75;;;;;30.75;46.12;100987.50;146604;566;46016;-83
2022/05/25 11:13:11;;;;;;;;;14.00;13.00;;;;;30.82;45.59;100990.00;146609;652;46010;-81
2022/05/25 11:16:35;;;;;;;;;13.25;13.25;;;;;30.86;45.25;100979.19;146606;615;46024;-81
2022/05/25 11:20:06;;;;;;;;;15.25;15.25;;;;;30.95;45.79;100990.50;146604;627;46010;-82
2022/05/25 11:23:32;;;;;;;;;13.25;13.25;;;;;30.27;46.07;100852.38;146605;566;46016;-73
2022/05/25 11:27:03;;;;;;;;;16.25;15.00;;;;;31.02;46.38;100988.53;146604;569;46020;-71
2022/05/25 11:30:12;;;;;;;;;15.00;14.50;;;;;31.02;45.66;100993.88;146608;625;46012;-73
2022/05/25 11:33:48;;;;;;;;;11.50;11.50;;;;;29.98;44.58;100828.22;146607;588;46020;-74
2022/05/25 11:36:58;;;;;;;;;13.75;13.50;;;;;30.90;45.43;100983.53;146606;612;46016;-72
2022/05/25 11:40:33;;;;;;;;;11.00;9.25;;;;;30.93;45.13;100984.31;146610;637;45026;-79
2022/05/25 11:44:09;;;;;;;;;13.00;13.00;;;;;30.99;45.49;100977.91;146609;597;46013;-77
2022/05/25 11:47:35;;;;;;;;;13.25;13.25;;;;;31.01;44.04;100971.59;146607;582;46010;-76
2022/05/25 11:50:44;;;;;;;;;11.25;11.00;;;;;30.96;43.23;100972.66;146605;572;46916;-77
2022/05/25 11:54:01;;;;;;;;;13.75;12.50;;;;;30.82;44.10;100973.06;146607;579;46020;-79
2022/05/25 11:58:00;;;;;;;;;12.00;12.00;;;;;29.77;44.50;100835.88;146608;703;46012;-78
2022/05/25 12:01:32;;;;;;;;;12.00;10.75;;;;;29.50;44.51;100820.53;146605;576;46031;-72
2022/05/25 12:05:03;;;;;;;;;15.50;14.50;;;;;29.33;44.31;100820.97;146607;585;46012;-73
2022/05/25 12:08:47;;;;;;;;;12.50;12.50;;;;;30.11;42.77;100963.34;146607;679;46020;-76
2022/05/25 12:12:24;;;;;;;;;14.50;13.25;;;;;30.27;45.36;100963.84;146609;602;46014;-79
2022/05/25 12:15:54;;;;;;;;;11.50;11.50;;;;;30.51;44.14;100951.59;146613;699;45021;-83
2022/05/25 12:19:32;;;;;;;;;12.75;12.75;;;;;30.08;43.10;100853.78;146608;683;46016;-78
2022/05/25 12:22:30;;;;;;;;;13.00;13.00;;;;;30.69;43.06;100950.22;146607;623;46020;-75
2022/05/25 12:25:24;;;;;;;;;10.25;10.25;;;;;30.55;42.61;100954.12;146606;580;45915;-75
2022/05/25 12:28:16;;;;;;;;;13.00;12.75;;;;;30.39;44.54;100950.13;146609;590;46012;-76
2022/05/25 12:31:15;;;;;;;;;12.75;12.75;;;;;30.31;45.38;100953.03;146603;587;47012;-78
2022/05/25 12:34:07;;;;;;;;;17.25;15.00;;;;;30.27;44.99;100958.50;146609;664;45020;-77
2022/05/25 12:37:01;;;;;;;;;13.00;13.00;;;;;30.30;45.46;100955.72;146607;574;46014;-87
2022/05/25 12:39:58;;;;;;;;;13.50;13.00;;;;;30.30;46.02;100955.72;146607;599;46020;-85
2022/05/25 12:42:50;;;;;;;;;15.00;14.50;;;;;30.34;44.80;100952.03;146605;581;46014;-82
2022/05/25 12:49:13;;;;;;;;;12.00;12.00;;;;;30.56;45.74;100952.31;146604;680;46017;-83
2022/05/25 12:52:25;;;;;;;;;14.00;14.00;;;;;30.64;44.71;100957.47;146608;619;46010;-79
2022/05/25 12:55:31;;;;;;;;;13.25;11.50;;;;;30.36;43.81;100959.13;146604;592;46914;-84
2022/05/25 12:58:42;;;;;;;;;14.00;11.00;;;;;30.12;44.55;100957.94;146607;604;46012;-89
2022/05/25 13:01:44;;;;;;;;;10.75;10.75;;;;;29.87;43.63;100959.47;146606;579;46014;-87
2022/05/25 13:05:06;;;;;;;;;13.25;11.75;;;;;29.06;45.39;100851.88;146605;573;46010;-80
2022/05/25 13:07:58;;;;;;;;;10.75;9.75;;;;;29.77;44.95;100945.47;146607;626;46016;-81
2022/05/25 13:11:08;;;;;;;;;13.00;12.00;;;;;29.78;45.06;100949.00;146607;713;46020;-83
2022/05/25 13:14:00;;;;;;;;;12.00;12.00;;;;;29.82;45.62;100946.25;146606;565;46014;-81
2022/05/25 13:17:11;;;;;;;;;11.75;10.00;;;;;29.84;44.96;100938.16;146607;680;46010;-81
2022/05/25 13:20:06;;;;;;;;;12.75;11.50;;;;;29.87;44.67;100940.75;146604;637;46014;-79
2022/05/25 13:23:07;;;;;;;;;13.50;13.25;;;;;29.84;44.76;100936.38;146607;588;46020;-78
2022/05/25 13:26:07;;;;;;;;;14.00;13.75;;;;;29.88;45.56;100934.53;146605;701;46016;-85
2022/05/25 13:29:11;;;;;;;;;15.25;14.25;;;;;30.04;45.86;100937.69;146608;597;46010;-82
2022/05/25 13:33:01;;;;;;;;;12.00;11.50;;;;;30.19;45.57;100929.25;146604;583;46915;-81
2022/05/25 13:36:25;;;;;;;;;12.75;12.50;;;;;30.21;44.92;100934.56;146605;579;47010;-84
2022/05/25 13:39:25;;;;;;;;;15.00;13.75;;;;;30.22;44.88;100936.31;146607;666;46012;-78
2022/05/25 13:42:20;;;;;;;;;12.75;12.75;;;;;30.25;45.57;100936.25;146608;623;46030;-83
2022/05/25 13:45:19;;;;;;;;;15.50;14.50;;;;;30.27;45.70;100939.75;146605;618;46016;-83
2022/05/25 13:48:17;;;;;;;;;11.00;11.00;;;;;30.24;45.48;100940.72;146605;577;46020;-86
2022/05/25 13:51:09;;;;;;;;;13.50;12.00;;;;;30.27;45.69;100939.75;146605;698;46017;-82
2022/05/25 13:54:01;;;;;;;;;14.50;13.00;;;;;30.32;45.66;100937.84;146607;624;46012;-79
2022/05/25 13:56:54;;;;;;;;;13.75;12.50;;;;;30.08;46.52;100939.34;146604;642;46017;-81
2022/05/25 13:59:47;;;;;;;;;14.00;13.75;;;;;29.90;46.65;100932.66;146606;566;46020;-86
2022/05/25 14:02:39;;;;;;;;;15.50;14.00;;;;;29.71;47.15;100937.59;146607;570;46016;-86
2022/05/25 14:05:39;;;;;;;;;16.00;15.25;;;;;29.56;48.01;100935.25;146605;659;46010;-88
2022/05/25 14:12:00;;;;;;;;;18.00;16.00;;;;;29.40;48.34;100942.75;146606;633;46021;-86